Time;durP1;ratioP1;P1;durP2;ratioP2;P2;SDS_P1;SDS_P2;PMS_P1;PMS_P2;Temp;Humidity;BMP_temperature;BMP_pressure;BME280_temperature;BME280_humidity;BME280_pressure;Samples;Min_cycle;Max_cycle;Signal;HPM_P1;HPM_P2
2023/08/19 00:01:09;;;;;;;6.70;4.35;;;25.50;99.90;;;;;;5024396;28;20180;-66
2023/08/19 00:03:35;;;;;;;5.93;4.40;;;25.50;99.90;;;;;;5021052;28;20186;-66
2023/08/19 00:06:40;;;;;;;5.43;4.40;;;25.50;99.90;;;;;;5037729;28;20213;-66
2023/08/19 00:09:08;;;;;;;5.35;4.35;;;25.50;99.90;;;;;;5029451;28;20209;-78
2023/08/19 00:11:40;;;;;;;4.57;3.75;;;25.40;99.90;;;;;;5023832;28;20246;-74
2023/08/19 00:14:06;;;;;;;4.70;4.00;;;25.40;99.90;;;;;;5030276;28;20198;-76
2023/08/19 00:16:37;;;;;;;7.90;4.35;;;25.40;99.90;;;;;;5031310;28;20206;-76
2023/08/19 00:19:03;;;;;;;4.72;4.00;;;25.40;99.90;;;;;;5032501;28;20198;-76
2023/08/19 00:21:34;;;;;;;4.90;4.32;;;25.40;99.90;;;;;;5031232;28;20174;-76
2023/08/19 00:23:59;;;;;;;4.55;3.80;;;25.40;99.90;;;;;;5047931;28;20202;-77
2023/08/19 00:26:25;;;;;;;5.30;4.20;;;25.30;99.90;;;;;;5021563;28;20296;-78
2023/08/19 00:28:51;;;;;;;5.05;4.55;;;25.30;99.90;;;;;;5046352;28;20224;-74
2023/08/19 00:31:16;;;;;;;5.03;4.25;;;25.30;99.90;;;;;;5037328;28;20174;-76
2023/08/19 00:33:42;;;;;;;4.93;4.38;;;25.30;99.90;;;;;;5031039;28;20202;-74
2023/08/19 00:36:08;;;;;;;4.78;4.13;;;25.30;99.90;;;;;;5039250;28;20183;-71
2023/08/19 00:38:33;;;;;;;5.95;4.03;;;25.20;99.90;;;;;;5053220;28;20185;-76
2023/08/19 00:41:03;;;;;;;8.05;4.53;;;25.20;99.90;;;;;;5034621;28;20190;-74
2023/08/19 00:43:29;;;;;;;4.35;3.95;;;25.20;99.90;;;;;;5034285;28;20236;-76
2023/08/19 00:45:57;;;;;;;7.15;4.70;;;25.10;99.90;;;;;;5019532;28;20291;-76
2023/08/19 00:48:25;;;;;;;5.53;3.83;;;25.10;99.90;;;;;;5030462;28;20216;-76
2023/08/19 00:50:54;;;;;;;6.95;4.50;;;25.10;99.90;;;;;;5053663;28;20186;-73
2023/08/19 00:53:24;;;;;;;7.00;3.78;;;25.00;99.90;;;;;;5042659;28;20272;-72
2023/08/19 00:55:51;;;;;;;7.22;3.67;;;25.00;99.90;;;;;;5017897;28;20182;-76
2023/08/19 00:58:18;;;;;;;4.97;3.90;;;24.90;99.90;;;;;;5025827;28;20185;-74
2023/08/19 01:00:48;;;;;;;5.75;3.63;;;24.90;99.90;;;;;;5057512;28;20192;-77
2023/08/19 01:03:14;;;;;;;4.85;3.67;;;24.90;99.90;;;;;;5041961;28;20191;-77
2023/08/19 01:05:45;;;;;;;5.53;3.85;;;24.90;99.90;;;;;;5034080;28;20203;-76
2023/08/19 01:08:17;;;;;;;4.32;3.47;;;24.90;99.90;;;;;;5050651;28;20189;-72
2023/08/19 01:11:31;;;;;;;4.65;3.65;;;24.90;99.90;;;;;;5037066;28;20178;-75
2023/08/19 01:14:26;;;;;;;4.70;3.63;;;24.80;99.90;;;;;;4961151;28;20204;-76
2023/08/19 01:16:57;;;;;;;4.30;3.40;;;24.80;99.90;;;;;;5036914;28;20181;-73
2023/08/19 01:19:29;;;;;;;4.18;3.40;;;24.80;99.90;;;;;;5036254;28;20171;-75
2023/08/19 01:22:01;;;;;;;4.13;3.60;;;24.70;99.90;;;;;;5026340;28;20297;-74
2023/08/19 01:24:39;;;;;;;4.53;3.63;;;24.70;99.90;;;;;;5032565;28;20182;-76
2023/08/19 01:27:25;;;;;;;4.40;3.47;;;24.70;99.90;;;;;;5032897;28;20225;-77
2023/08/19 01:29:55;;;;;;;6.03;3.40;;;24.70;99.90;;;;;;5037060;28;20188;-77
2023/08/19 01:32:24;;;;;;;3.90;3.55;;;24.70;99.90;;;;;;5050997;28;20206;-76
2023/08/19 01:34:51;;;;;;;4.82;3.70;;;24.60;99.90;;;;;;5034369;28;20204;-77
2023/08/19 01:38:03;;;;;;;6.30;3.88;;;24.60;99.90;;;;;;5029545;28;20216;-73
2023/08/19 01:40:33;;;;;;;4.95;3.70;;;24.60;99.90;;;;;;5030689;28;20197;-75
2023/08/19 01:42:59;;;;;;;5.55;3.45;;;24.60;99.90;;;;;;5026848;28;20194;-76
2023/08/19 01:45:28;;;;;;;3.97;3.55;;;24.50;99.90;;;;;;5033468;28;20190;-77
2023/08/19 01:47:56;;;;;;;3.78;3.40;;;24.50;99.90;;;;;;5026898;28;20213;-74
2023/08/19 01:50:22;;;;;;;4.80;3.53;;;24.50;99.90;;;;;;5022328;28;20182;-74
2023/08/19 01:52:48;;;;;;;4.40;3.55;;;24.50;99.90;;;;;;5023700;28;20182;-76
2023/08/19 01:55:13;;;;;;;4.05;3.42;;;24.40;99.90;;;;;;5032661;28;20183;-76
2023/08/19 01:57:39;;;;;;;4.28;3.50;;;24.40;99.90;;;;;;5043811;28;20223;-76
2023/08/19 02:00:10;;;;;;;4.85;3.75;;;24.40;99.90;;;;;;5048850;28;20193;-73
2023/08/19 02:02:38;;;;;;;3.45;3.15;;;24.40;99.90;;;;;;5035676;28;20200;-75
2023/08/19 02:05:05;;;;;;;4.47;3.60;;;24.40;99.90;;;;;;5036633;28;20174;-77
2023/08/19 02:07:31;;;;;;;3.90;3.33;;;24.30;99.90;;;;;;5036615;28;20206;-75
2023/08/19 02:09:56;;;;;;;4.55;3.65;;;24.30;99.90;;;;;;5051072;28;20194;-77
2023/08/19 02:12:22;;;;;;;4.50;3.70;;;24.30;99.90;;;;;;5035979;28;20178;-76
2023/08/19 02:14:50;;;;;;;4.30;3.47;;;24.30;99.90;;;;;;5029946;28;20175;-77
2023/08/19 02:17:15;;;;;;;4.65;3.90;;;24.30;99.90;;;;;;5016208;28;20210;-77
2023/08/19 02:19:41;;;;;;;6.80;3.70;;;24.20;99.90;;;;;;5022469;28;20182;-78
2023/08/19 02:22:07;;;;;;;4.43;3.95;;;24.30;99.90;;;;;;5036170;28;20186;-77
2023/08/19 02:24:33;;;;;;;4.78;3.85;;;24.20;99.90;;;;;;5035938;28;20174;-77
2023/08/19 02:27:03;;;;;;;5.35;3.60;;;24.20;99.90;;;;;;5027247;28;20293;-77
2023/08/19 02:29:29;;;;;;;4.30;3.75;;;24.20;99.90;;;;;;5032960;28;20201;-75
2023/08/19 02:31:57;;;;;;;4.57;4.13;;;24.10;99.90;;;;;;5045224;28;20202;-74
2023/08/19 02:34:22;;;;;;;3.83;3.45;;;24.10;99.90;;;;;;5035755;28;20181;-76
2023/08/19 02:36:51;;;;;;;4.13;3.60;;;24.10;99.90;;;;;;5035502;28;20202;-78
2023/08/19 02:39:16;;;;;;;5.47;3.60;;;24.10;99.90;;;;;;5035695;28;20178;-69
2023/08/19 02:41:44;;;;;;;5.07;3.53;;;24.10;99.90;;;;;;5035089;28;20256;-77
2023/08/19 02:44:12;;;;;;;5.78;3.90;;;24.10;99.90;;;;;;5035241;28;20269;-77
2023/08/19 02:46:40;;;;;;;5.28;3.42;;;24.10;99.90;;;;;;5035452;28;20198;-78
2023/08/19 02:49:05;;;;;;;3.88;3.47;;;24.10;99.90;;;;;;5032034;28;20281;-75
2023/08/19 02:51:33;;;;;;;4.47;3.40;;;24.10;99.90;;;;;;5023514;28;20281;-77
2023/08/19 02:54:02;;;;;;;4.53;3.50;;;24.10;99.90;;;;;;5022044;28;20202;-76
2023/08/19 02:56:27;;;;;;;8.85;3.70;;;24.10;99.90;;;;;;5050721;28;20178;-71
2023/08/19 02:58:53;;;;;;;5.38;3.65;;;24.10;99.90;;;;;;5025812;28;20292;-73
2023/08/19 03:01:18;;;;;;;4.03;3.50;;;24.10;99.90;;;;;;5022016;28;20187;-74
2023/08/19 03:03:44;;;;;;;4.07;3.28;;;24.10;99.90;;;;;;5026210;28;20213;-77
2023/08/19 03:06:12;;;;;;;4.07;3.10;;;24.10;99.90;;;;;;5047740;28;20186;-74
2023/08/19 03:08:40;;;;;;;6.80;3.28;;;24.10;99.90;;;;;;5037196;28;20231;-77
2023/08/19 03:11:05;;;;;;;4.20;3.45;;;24.10;99.90;;;;;;5026914;28;20179;-74
2023/08/19 03:13:33;;;;;;;5.20;3.78;;;24.10;99.90;;;;;;5035024;28;20193;-77
2023/08/19 03:16:00;;;;;;;5.15;3.40;;;24.10;99.90;;;;;;5049844;28;20178;-77
2023/08/19 03:18:26;;;;;;;4.70;3.25;;;24.10;99.90;;;;;;5049497;28;20293;-72
2023/08/19 03:20:59;;;;;;;8.82;3.60;;;24.10;99.90;;;;;;5019865;28;20178;-77
2023/08/19 03:23:27;;;;;;;3.97;3.15;;;24.10;99.90;;;;;;5036223;28;20486;-75
2023/08/19 03:25:54;;;;;;;5.10;3.50;;;24.10;99.90;;;;;;5033864;28;20293;-77
2023/08/19 03:28:20;;;;;;;5.35;3.45;;;24.00;99.90;;;;;;5050693;28;20192;-77
2023/08/19 03:30:48;;;;;;;5.43;3.28;;;24.00;99.90;;;;;;5034217;28;20186;-74
2023/08/19 03:33:13;;;;;;;5.13;3.45;;;24.00;99.90;;;;;;5032991;28;20206;-77
2023/08/19 03:35:39;;;;;;;6.88;3.58;;;24.00;99.90;;;;;;5033479;28;20181;-77
2023/08/19 03:38:05;;;;;;;5.43;3.20;;;23.90;99.90;;;;;;5048857;28;20181;-73
2023/08/19 03:40:30;;;;;;;5.50;3.60;;;23.90;99.90;;;;;;5023613;28;20237;-72
2023/08/19 03:42:58;;;;;;;4.22;3.38;;;23.90;99.90;;;;;;5018917;28;20257;-74
2023/08/19 03:45:26;;;;;;;5.45;3.22;;;23.90;99.90;;;;;;5034358;28;20181;-71
2023/08/19 03:47:52;;;;;;;3.70;3.05;;;23.80;99.90;;;;;;5014494;28;20182;-74
2023/08/19 03:50:17;;;;;;;4.90;3.35;;;23.80;99.90;;;;;;5021725;28;20204;-77
2023/08/19 03:52:45;;;;;;;5.00;3.33;;;23.80;99.90;;;;;;5030686;28;20464;-75
2023/08/19 03:55:11;;;;;;;4.35;3.20;;;23.70;99.90;;;;;;5015209;28;20224;-75
2023/08/19 03:57:39;;;;;;;4.85;3.40;;;23.70;99.90;;;;;;5024737;28;20269;-77
2023/08/19 04:00:09;;;;;;;4.13;3.10;;;23.70;99.90;;;;;;5020193;28;20210;-73
2023/08/19 04:02:37;;;;;;;4.82;3.35;;;23.70;99.90;;;;;;5033442;28;20293;-72
2023/08/19 04:05:04;;;;;;;4.15;3.17;;;23.70;99.90;;;;;;5028872;28;20174;-77
2023/08/19 04:07:30;;;;;;;4.13;3.03;;;23.70;99.90;;;;;;5014806;28;20334;-76
2023/08/19 04:09:57;;;;;;;3.53;3.10;;;23.70;99.90;;;;;;5027559;28;20221;-75
2023/08/19 04:12:28;;;;;;;6.07;3.40;;;23.70;99.90;;;;;;5034479;28;20264;-77
2023/08/19 04:14:59;;;;;;;3.60;3.10;;;23.70;99.90;;;;;;5034283;28;20201;-78
2023/08/19 04:17:24;;;;;;;3.55;3.17;;;23.70;99.90;;;;;;5032591;28;20179;-78
2023/08/19 04:19:51;;;;;;;3.88;3.45;;;23.70;99.90;;;;;;5017012;28;20178;-78
2023/08/19 04:22:17;;;;;;;7.13;3.08;;;23.80;99.90;;;;;;5039191;28;20356;-77
2023/08/19 04:24:48;;;;;;;3.38;3.08;;;23.80;99.90;;;;;;5021959;28;20189;-73
2023/08/19 04:27:15;;;;;;;4.68;3.10;;;23.70;99.90;;;;;;5025405;28;20214;-75
2023/08/19 04:29:40;;;;;;;4.25;3.00;;;23.80;99.90;;;;;;5034569;28;20201;-78
2023/08/19 04:32:06;;;;;;;4.43;3.15;;;23.80;99.90;;;;;;5021755;28;20185;-74
2023/08/19 04:34:32;;;;;;;4.65;3.05;;;23.80;99.90;;;;;;5034113;28;20202;-75
2023/08/19 04:37:00;;;;;;;3.47;3.17;;;23.80;99.90;;;;;;5034306;28;20173;-77
2023/08/19 04:39:30;;;;;;;5.32;3.25;;;23.80;99.90;;;;;;5041295;28;20181;-77
2023/08/19 04:41:55;;;;;;;5.20;3.33;;;23.80;99.90;;;;;;5028910;28;20260;-79
2023/08/19 04:44:21;;;;;;;4.22;2.97;;;23.80;99.90;;;;;;5014228;28;20190;-78
2023/08/19 04:46:47;;;;;;;4.22;3.30;;;23.80;99.90;;;;;;5014130;28;20194;-78
2023/08/19 04:49:12;;;;;;;8.43;3.17;;;23.70;99.90;;;;;;5018524;28;20186;-78
2023/08/19 04:51:38;;;;;;;5.78;4.85;;;23.70;99.90;;;;;;5029947;28;20216;-78
2023/08/19 04:54:04;;;;;;;13.00;11.30;;;23.70;99.90;;;;;;5029264;28;20267;-76
2023/08/19 04:56:30;;;;;;;7.07;6.03;;;23.70;99.90;;;;;;5044745;28;20490;-78
2023/08/19 04:59:00;;;;;;;5.38;4.60;;;23.70;99.90;;;;;;5049983;28;20231;-75
2023/08/19 05:01:27;;;;;;;4.32;3.85;;;23.70;99.90;;;;;;5019042;28;20198;-74
2023/08/19 05:03:53;;;;;;;3.85;3.50;;;23.60;99.90;;;;;;5026035;28;20186;-78
2023/08/19 05:06:19;;;;;;;5.70;5.10;;;23.60;99.90;;;;;;5048848;28;20343;-77
2023/08/19 05:08:44;;;;;;;10.50;8.75;;;23.60;99.90;;;;;;5031436;28;20344;-77
2023/08/19 05:11:10;;;;;;;7.38;6.68;;;23.60;99.90;;;;;;5036701;28;20197;-72
2023/08/19 05:13:36;;;;;;;9.40;5.80;;;23.60;99.90;;;;;;5029851;28;20269;-76
2023/08/19 05:16:04;;;;;;;5.85;4.95;;;23.70;99.90;;;;;;5041866;28;20197;-77
2023/08/19 05:18:32;;;;;;;5.07;4.50;;;23.70;99.90;;;;;;5036939;28;20185;-77
2023/08/19 05:20:58;;;;;;;6.10;4.97;;;23.70;99.90;;;;;;5036611;28;20197;-77
2023/08/19 05:23:26;;;;;;;8.23;7.45;;;23.80;99.90;;;;;;5029522;28;20229;-77
2023/08/19 05:25:54;;;;;;;6.68;5.30;;;23.80;99.90;;;;;;5050958;28;20230;-77
2023/08/19 05:28:20;;;;;;;7.95;5.05;;;23.90;99.90;;;;;;5026395;28;20178;-77
2023/08/19 05:30:45;;;;;;;5.32;4.28;;;23.90;99.90;;;;;;5024879;28;20274;-77
2023/08/19 05:33:13;;;;;;;4.45;3.60;;;24.00;99.90;;;;;;5040732;28;20174;-75
2023/08/19 05:35:39;;;;;;;4.18;3.20;;;24.10;99.90;;;;;;5053386;28;20236;-76
2023/08/19 05:38:04;;;;;;;5.55;3.38;;;24.20;99.90;;;;;;5027939;28;20174;-75
2023/08/19 05:40:30;;;;;;;4.28;3.13;;;24.30;99.90;;;;;;5018710;28;20273;-77
2023/08/19 05:42:56;;;;;;;3.70;3.10;;;24.40;99.90;;;;;;5026287;28;20206;-77
2023/08/19 05:45:24;;;;;;;4.18;3.53;;;24.50;99.90;;;;;;5036727;28;20189;-78
2023/08/19 05:47:50;;;;;;;5.25;4.55;;;24.60;99.90;;;;;;5040063;28;20284;-78
2023/08/19 05:50:17;;;;;;;3.90;3.03;;;24.70;99.90;;;;;;5035627;28;20284;-72
2023/08/19 05:52:45;;;;;;;4.72;3.30;;;24.70;99.90;;;;;;5043690;28;20174;-78
2023/08/19 05:55:10;;;;;;;4.05;3.30;;;24.90;99.90;;;;;;5018221;28;20291;-79
2023/08/19 05:57:36;;;;;;;3.85;2.88;;;24.90;99.90;;;;;;5033958;28;20242;-78
2023/08/19 06:00:03;;;;;;;3.85;3.10;;;25.00;99.90;;;;;;5039213;28;20175;-75
2023/08/19 06:02:28;;;;;;;6.57;2.80;;;25.10;99.90;;;;;;5060299;28;20181;-76
2023/08/19 06:04:57;;;;;;;3.17;2.80;;;25.10;99.90;;;;;;5061387;28;20185;-71
2023/08/19 06:07:26;;;;;;;3.10;2.47;;;25.20;99.90;;;;;;5068280;28;20202;-67
2023/08/19 06:09:52;;;;;;;4.05;2.78;;;25.30;99.90;;;;;;5054382;28;20177;-69
2023/08/19 06:12:17;;;;;;;2.95;2.60;;;25.30;99.90;;;;;;5056989;28;20209;-66
2023/08/19 06:14:43;;;;;;;2.80;2.40;;;25.40;99.90;;;;;;5055760;28;20197;-65
2023/08/19 06:17:09;;;;;;;4.03;2.53;;;25.50;99.90;;;;;;5053890;28;20193;-66
2023/08/19 06:19:34;;;;;;;4.20;3.15;;;25.60;99.90;;;;;;5042532;28;20189;-76
2023/08/19 06:22:00;;;;;;;5.07;4.28;;;25.60;99.90;;;;;;5036361;28;20261;-77
2023/08/19 06:24:27;;;;;;;4.10;3.22;;;25.70;99.90;;;;;;5036355;28;20182;-75
2023/08/19 06:26:57;;;;;;;4.47;2.75;;;25.70;99.90;;;;;;5028114;28;20194;-77
2023/08/19 06:29:23;;;;;;;4.00;2.85;;;25.80;99.90;;;;;;5018287;28;20221;-77
2023/08/19 06:31:51;;;;;;;3.30;2.42;;;25.80;99.90;;;;;;5039644;28;20246;-75
2023/08/19 06:34:17;;;;;;;5.25;2.50;;;25.80;99.90;;;;;;5043989;28;20177;-74
2023/08/19 06:36:46;;;;;;;3.58;2.40;;;25.90;99.90;;;;;;5034807;28;20243;-77
2023/08/19 06:39:24;;;;;;;2.65;2.42;;;25.90;99.90;;;;;;5028373;28;20191;-77
2023/08/19 06:41:55;;;;;;;3.17;2.30;;;25.90;99.90;;;;;;5028228;28;20200;-77
2023/08/19 06:44:22;;;;;;;2.42;2.22;;;26.00;99.90;;;;;;5037764;28;20173;-67
2023/08/19 06:46:49;;;;;;;5.80;2.60;;;26.00;99.90;;;;;;5049306;28;21236;-76
2023/08/19 06:49:18;;;;;;;5.28;2.53;;;26.10;99.90;;;;;;5050788;28;20181;-78
2023/08/19 06:51:46;;;;;;;2.97;2.30;;;26.10;99.90;;;;;;5039730;28;20288;-82
2023/08/19 06:54:12;;;;;;;3.53;2.45;;;26.20;99.90;;;;;;5056212;28;20162;-80
2023/08/19 06:56:57;;;;;;;3.95;2.40;;;26.20;99.90;;;;;;5035337;28;20269;-74
2023/08/19 06:59:41;;;;;;;3.72;2.25;;;26.30;99.90;;;;;;5032206;28;20189;-81
2023/08/19 07:02:08;;;;;;;3.42;2.30;;;26.40;99.90;;;;;;5024608;28;20178;-76
2023/08/19 07:04:35;;;;;;;4.68;2.83;;;26.50;99.90;;;;;;5033919;28;20201;-80
2023/08/19 07:07:04;;;;;;;3.92;2.60;;;26.50;99.90;;;;;;5051221;28;20197;-82
2023/08/19 07:09:31;;;;;;;4.10;2.65;;;26.50;99.90;;;;;;5034842;28;20181;-79
2023/08/19 07:12:00;;;;;;;4.75;3.85;;;26.60;99.90;;;;;;5040768;28;20182;-79
2023/08/19 07:14:29;;;;;;;4.90;3.55;;;26.60;99.90;;;;;;5031477;28;20202;-81
2023/08/19 07:17:03;;;;;;;4.53;3.10;;;26.60;99.90;;;;;;5044956;28;20266;-80
2023/08/19 07:19:38;;;;;;;5.90;3.25;;;26.60;99.90;;;;;;5032484;28;20173;-79
2023/08/19 07:22:05;;;;;;;2.70;2.38;;;26.60;99.90;;;;;;5031172;28;20174;-78
2023/08/19 07:24:34;;;;;;;4.75;2.92;;;26.60;99.90;;;;;;5051536;28;20237;-76
2023/08/19 07:27:02;;;;;;;4.88;2.30;;;26.60;99.90;;;;;;5043594;28;20194;-80
2023/08/19 07:29:34;;;;;;;3.17;2.60;;;26.60;99.90;;;;;;5034207;28;20248;-77
2023/08/19 07:32:04;;;;;;;3.88;2.63;;;26.60;99.90;;;;;;5036200;28;20178;-78
2023/08/19 07:34:30;;;;;;;5.53;2.60;;;26.60;99.90;;;;;;5054561;28;20181;-80
2023/08/19 07:36:58;;;;;;;4.10;2.55;;;26.60;99.90;;;;;;5037257;28;20246;-79
2023/08/19 07:39:27;;;;;;;3.25;2.38;;;26.60;99.90;;;;;;5031160;28;20239;-81
2023/08/19 07:41:53;;;;;;;4.32;2.58;;;26.60;99.90;;;;;;5038149;28;20236;-75
2023/08/19 07:44:21;;;;;;;2.92;2.40;;;26.60;99.90;;;;;;5034172;28;20173;-73
2023/08/19 07:46:47;;;;;;;2.90;2.30;;;26.70;99.90;;;;;;5029813;28;20206;-80
2023/08/19 07:49:12;;;;;;;4.32;2.20;;;26.70;99.90;;;;;;5030881;28;20191;-80
2023/08/19 07:51:40;;;;;;;2.30;2.08;;;26.80;99.90;;;;;;5029909;28;20239;-79
2023/08/19 07:54:05;;;;;;;3.63;2.38;;;26.80;99.90;;;;;;5030740;28;20253;-79
2023/08/19 07:56:33;;;;;;;2.72;2.20;;;26.90;99.90;;;;;;5034199;28;20190;-78
2023/08/19 07:59:01;;;;;;;2.90;2.45;;;26.90;99.90;;;;;;5020465;28;20178;-74
2023/08/19 08:01:29;;;;;;;8.68;6.82;;;27.00;99.90;;;;;;5024784;28;20205;-79
2023/08/19 08:03:55;;;;;;;5.20;4.00;;;27.00;99.90;;;;;;5021020;28;20171;-75
2023/08/19 08:06:20;;;;;;;3.65;3.35;;;27.10;99.90;;;;;;5014923;28;20211;-79
2023/08/19 08:08:46;;;;;;;3.55;2.95;;;27.10;99.90;;;;;;5033891;28;20255;-81
2023/08/19 08:11:12;;;;;;;3.58;2.40;;;27.20;99.90;;;;;;5029955;28;20170;-78
2023/08/19 08:13:37;;;;;;;3.45;2.38;;;27.30;99.90;;;;;;5040877;28;20173;-79
2023/08/19 08:16:03;;;;;;;3.20;2.45;;;27.40;99.90;;;;;;5034591;28;20225;-67
2023/08/19 08:18:29;;;;;;;3.88;2.15;;;27.40;99.90;;;;;;5032296;28;20197;-67
2023/08/19 08:20:54;;;;;;;3.17;2.13;;;27.50;99.90;;;;;;5033674;28;20241;-67
2023/08/19 08:23:25;;;;;;;3.25;2.20;;;27.60;99.90;;;;;;5035866;28;20242;-66
2023/08/19 08:25:52;;;;;;;2.67;2.08;;;27.60;99.90;;;;;;5032609;28;20193;-67
2023/08/19 08:28:18;;;;;;;4.47;2.53;;;27.70;99.90;;;;;;5033289;28;20269;-67
2023/08/19 08:30:44;;;;;;;4.60;2.55;;;27.80;99.90;;;;;;5033544;28;20292;-66
2023/08/19 08:33:09;;;;;;;6.30;2.28;;;27.80;99.90;;;;;;5053146;28;20173;-66
2023/08/19 08:35:35;;;;;;;3.95;2.50;;;27.90;99.90;;;;;;5033914;28;20170;-68
2023/08/19 08:38:03;;;;;;;2.78;2.13;;;28.00;99.90;;;;;;5029845;28;20210;-66
2023/08/19 08:40:31;;;;;;;3.20;2.28;;;28.10;99.90;;;;;;5039291;28;20182;-67
2023/08/19 08:43:02;;;;;;;3.75;2.45;;;28.20;99.90;;;;;;5032302;28;20212;-67
2023/08/19 08:45:34;;;;;;;6.45;2.53;;;28.30;99.90;;;;;;5034017;28;20174;-67
2023/08/19 08:48:02;;;;;;;2.72;2.25;;;28.40;99.90;;;;;;5028839;28;20193;-67
2023/08/19 08:50:29;;;;;;;2.70;2.50;;;28.40;99.90;;;;;;5022582;28;20202;-67
2023/08/19 08:53:00;;;;;;;4.65;2.80;;;28.40;99.90;;;;;;5037289;28;20170;-67
2023/08/19 08:55:33;;;;;;;4.15;2.50;;;28.50;99.90;;;;;;5036366;28;20210;-66
2023/08/19 08:58:01;;;;;;;2.75;2.30;;;28.50;99.90;;;;;;5053757;28;20186;-66
2023/08/19 09:00:29;;;;;;;2.67;2.10;;;28.50;99.90;;;;;;5037393;28;20205;-67
2023/08/19 09:02:58;;;;;;;2.95;2.38;;;28.60;99.90;;;;;;5036398;28;20170;-68
2023/08/19 09:05:26;;;;;;;3.92;2.15;;;28.60;99.90;;;;;;5022308;28;20189;-67
2023/08/19 09:07:54;;;;;;;3.17;2.20;;;28.70;99.90;;;;;;5020522;28;20205;-67
2023/08/19 09:10:23;;;;;;;3.13;2.22;;;28.70;99.90;;;;;;5042074;28;20173;-67
2023/08/19 09:12:55;;;;;;;3.08;2.60;;;28.80;99.90;;;;;;5043703;28;20268;-68
2023/08/19 09:15:22;;;;;;;6.30;2.70;;;28.80;99.90;;;;;;5034974;28;20249;-67
2023/08/19 09:17:49;;;;;;;3.28;2.42;;;28.80;99.90;;;;;;5051969;28;20212;-67
2023/08/19 09:20:20;;;;;;;2.58;2.38;;;28.90;99.90;;;;;;5036444;28;20216;-66
2023/08/19 09:22:46;;;;;;;2.72;2.38;;;28.90;99.90;;;;;;5036963;28;20185;-66
2023/08/19 09:25:15;;;;;;;3.85;2.50;;;28.90;99.90;;;;;;5035530;28;20200;-67
2023/08/19 09:27:44;;;;;;;4.32;2.78;;;29.00;99.90;;;;;;5034353;28;20193;-65
2023/08/19 09:30:18;;;;;;;6.03;2.97;;;29.00;99.90;;;;;;5030532;28;20184;-67
2023/08/19 09:32:46;;;;;;;2.97;2.22;;;29.10;99.90;;;;;;5038156;28;20188;-67
2023/08/19 09:35:12;;;;;;;4.63;2.33;;;29.20;99.90;;;;;;5044235;28;20173;-67
2023/08/19 09:37:39;;;;;;;3.08;2.35;;;29.20;99.90;;;;;;5036312;28;20177;-67
2023/08/19 09:40:17;;;;;;;3.60;2.40;;;29.40;99.90;;;;;;5036209;28;20174;-67
2023/08/19 09:42:47;;;;;;;3.42;2.28;;;29.50;99.90;;;;;;5035787;28;20183;-67
2023/08/19 09:45:18;;;;;;;3.17;2.10;;;29.60;99.90;;;;;;5032815;28;20225;-65
2023/08/19 09:47:51;;;;;;;3.10;2.30;;;29.80;99.90;;;;;;5034379;28;20206;-67
2023/08/19 09:50:20;;;;;;;2.33;2.13;;;29.80;99.90;;;;;;5051788;28;20288;-68
2023/08/19 09:52:56;;;;;;;2.40;2.10;;;29.80;99.90;;;;;;5035411;28;20189;-67
2023/08/19 09:55:26;;;;;;;3.05;2.72;;;29.90;99.90;;;;;;5035731;28;20232;-66
2023/08/19 09:57:52;;;;;;;4.07;2.42;;;29.90;99.90;;;;;;5053157;28;20264;-65
2023/08/19 10:00:17;;;;;;;2.88;2.47;;;30.00;99.90;;;;;;5034931;28;20236;-67
2023/08/19 10:02:43;;;;;;;3.30;2.28;;;30.00;99.90;;;;;;5032366;28;20205;-68
2023/08/19 10:05:09;;;;;;;2.30;2.10;;;30.20;99.90;;;;;;5035101;28;20231;-66
2023/08/19 10:07:38;;;;;;;3.35;2.55;;;30.20;99.90;;;;;;5067926;28;20207;-65
2023/08/19 10:10:07;;;;;;;3.17;2.40;;;30.30;99.90;;;;;;5042846;28;20246;-67
2023/08/19 10:12:37;;;;;;;3.63;2.65;;;30.50;99.90;;;;;;5035862;28;20425;-66
2023/08/19 10:15:06;;;;;;;4.35;2.78;;;30.60;99.90;;;;;;5030041;28;20264;-65
2023/08/19 10:17:36;;;;;;;4.18;2.70;;;30.90;99.90;;;;;;5035762;28;20360;-65
2023/08/19 10:20:10;;;;;;;3.10;2.50;;;31.20;99.90;;;;;;5028867;28;20184;-67
2023/08/19 10:22:41;;;;;;;2.83;2.30;;;31.70;99.90;;;;;;5036802;28;20201;-67
2023/08/19 10:25:15;;;;;;;2.85;2.20;;;32.20;99.90;;;;;;5034841;28;20182;-65
2023/08/19 10:27:44;;;;;;;2.70;2.15;;;32.60;99.90;;;;;;5035228;28;20268;-66
2023/08/19 10:30:28;;;;;;;6.03;2.67;;;32.90;99.90;;;;;;5035638;28;20245;-66
2023/08/19 10:32:53;;;;;;;3.70;2.30;;;33.00;99.90;;;;;;5028532;28;20239;-65
2023/08/19 10:35:19;;;;;;;3.25;2.55;;;32.90;99.90;;;;;;5033586;28;20197;-65
2023/08/19 10:37:50;;;;;;;4.38;2.38;;;32.90;99.90;;;;;;5016351;28;20170;-65
2023/08/19 10:40:24;;;;;;;3.00;2.30;;;33.00;99.90;;;;;;5020347;28;20178;-66
2023/08/19 10:42:58;;;;;;;3.13;2.15;;;33.40;99.90;;;;;;5035440;28;20194;-65
2023/08/19 10:45:34;;;;;;;3.00;2.10;;;33.70;99.90;;;;;;5033269;28;20234;-65
2023/08/19 10:48:00;;;;;;;3.30;2.30;;;34.00;99.90;;;;;;5027643;28;20209;-65
2023/08/19 10:50:34;;;;;;;3.40;2.33;;;34.30;99.90;;;;;;5052066;28;20180;-65
2023/08/19 10:53:04;;;;;;;5.65;2.50;;;34.50;99.90;;;;;;5033080;28;20173;-64
2023/08/19 10:55:51;;;;;;;2.25;2.05;;;34.70;99.90;;;;;;5038866;28;20177;-66
2023/08/19 10:58:18;;;;;;;3.33;2.15;;;34.90;99.90;;;;;;5046859;28;20397;-66
2023/08/19 11:00:47;;;;;;;3.45;2.30;;;34.90;99.90;;;;;;5049543;28;20319;-66
2023/08/19 11:03:16;;;;;;;2.97;2.20;;;34.90;99.90;;;;;;5033086;28;20186;-68
2023/08/19 11:05:54;;;;;;;2.95;2.67;;;34.90;99.90;;;;;;5027323;28;20300;-68
2023/08/19 11:08:23;;;;;;;4.50;2.67;;;34.90;99.90;;;;;;5040932;28;20448;-66
2023/08/19 11:10:49;;;;;;;3.65;2.70;;;34.80;99.90;;;;;;5015299;28;20178;-66
2023/08/19 11:13:16;;;;;;;3.13;2.67;;;34.70;99.90;;;;;;5042358;28;20205;-65
2023/08/19 11:15:49;;;;;;;3.08;2.67;;;34.50;99.90;;;;;;5029748;28;20177;-67
2023/08/19 11:18:23;;;;;;;2.90;2.30;;;34.50;99.90;;;;;;5019538;28;20174;-65
2023/08/19 11:20:49;;;;;;;3.42;2.47;;;34.70;99.90;;;;;;5059584;28;20166;-66
2023/08/19 11:23:25;;;;;;;2.67;2.30;;;34.80;99.90;;;;;;5033010;28;20264;-66
2023/08/19 11:25:54;;;;;;;2.28;2.03;;;34.90;99.90;;;;;;5061082;28;20192;-66
2023/08/19 11:28:20;;;;;;;3.60;2.45;;;34.90;99.90;;;;;;5036496;28;20208;-67
2023/08/19 11:30:46;;;;;;;2.92;2.47;;;34.80;99.90;;;;;;5034922;28;20288;-67
2023/08/19 11:33:16;;;;;;;2.58;2.33;;;34.90;99.90;;;;;;5041438;28;20220;-66
2023/08/19 11:35:43;;;;;;;3.28;2.45;;;34.90;99.90;;;;;;5052517;28;20179;-66
2023/08/19 11:38:15;;;;;;;3.45;2.33;;;34.80;99.90;;;;;;5034429;28;20196;-67
2023/08/19 11:40:42;;;;;;;3.03;2.72;;;34.70;99.90;;;;;;5034481;28;20185;-65
2023/08/19 11:43:13;;;;;;;2.75;2.42;;;34.60;99.90;;;;;;5035606;28;20276;-65
2023/08/19 11:45:39;;;;;;;2.95;2.60;;;34.40;99.90;;;;;;5034831;28;20288;-65
2023/08/19 11:48:09;;;;;;;3.28;2.80;;;34.30;99.90;;;;;;5022471;28;20189;-66
2023/08/19 11:50:42;;;;;;;3.08;2.72;;;34.10;99.90;;;;;;5017688;28;20178;-65
2023/08/19 11:53:08;;;;;;;3.83;2.40;;;34.00;99.90;;;;;;5031076;28;20209;-66
2023/08/19 11:55:36;;;;;;;3.83;2.53;;;33.90;99.90;;;;;;5016655;28;20170;-66
2023/08/19 11:58:03;;;;;;;2.83;2.53;;;33.80;99.90;;;;;;5014873;28;20202;-66
2023/08/19 12:00:29;;;;;;;4.03;2.58;;;33.80;99.90;;;;;;5025778;28;20208;-65
2023/08/19 12:02:54;;;;;;;4.90;2.80;;;33.80;99.90;;;;;;5034807;28;20181;-66
2023/08/19 12:05:25;;;;;;;3.13;2.50;;;33.80;99.90;;;;;;5050809;28;20182;-66
2023/08/19 12:07:53;;;;;;;3.65;2.67;;;33.80;99.90;;;;;;5034014;28;20219;-66
2023/08/19 12:10:19;;;;;;;3.28;2.60;;;33.80;99.90;;;;;;5037070;28;20269;-66
2023/08/19 12:13:00;;;;;;;3.72;2.35;;;33.80;99.90;;;;;;5044758;28;20239;-67
2023/08/19 12:15:28;;;;;;;3.05;2.38;;;33.80;99.90;;;;;;5033599;28;20169;-65
2023/08/19 12:17:53;;;;;;;2.90;2.65;;;33.90;99.90;;;;;;5034000;28;20169;-66
2023/08/19 12:20:19;;;;;;;3.90;2.78;;;34.00;99.90;;;;;;5034464;28;20181;-65
2023/08/19 12:22:47;;;;;;;5.10;2.60;;;34.00;99.90;;;;;;5034265;28;20181;-67
2023/08/19 12:25:14;;;;;;;3.78;2.72;;;34.10;99.90;;;;;;5036437;28;20173;-67
2023/08/19 12:27:43;;;;;;;4.18;2.83;;;34.10;99.90;;;;;;5037948;28;20197;-64
2023/08/19 12:30:11;;;;;;;3.28;2.80;;;34.30;99.90;;;;;;5038258;28;20181;-64
2023/08/19 12:32:39;;;;;;;3.28;2.42;;;34.40;99.90;;;;;;5022608;28;20182;-66
2023/08/19 12:35:05;;;;;;;3.47;2.65;;;34.50;99.90;;;;;;5019467;28;20209;-66
2023/08/19 12:37:30;;;;;;;3.17;2.55;;;34.50;99.90;;;;;;5037853;28;20181;-66
2023/08/19 12:39:56;;;;;;;3.45;2.90;;;34.60;99.90;;;;;;5037530;28;20169;-66
2023/08/19 12:42:21;;;;;;;3.33;2.83;;;34.70;99.90;;;;;;5038018;28;20173;-67
2023/08/19 12:44:47;;;;;;;4.68;3.10;;;34.80;99.90;;;;;;5037893;28;20184;-67
2023/08/19 12:47:15;;;;;;;3.90;3.30;;;34.90;99.90;;;;;;5037530;28;20205;-66
2023/08/19 12:49:43;;;;;;;4.95;3.55;;;34.90;99.90;;;;;;5034802;28;20170;-66
2023/08/19 12:52:08;;;;;;;5.50;3.20;;;34.90;99.90;;;;;;5027375;28;20180;-66